Time;durP1;ratioP1;P1;durP2;ratioP2;P2;SDS_P1;SDS_P2;PMS_P1;PMS_P2;Temp;Humidity;BMP_temperature;BMP_pressure;BME280_temperature;BME280_humidity;BME280_pressure;Samples;Min_cycle;Max_cycle;Signal;HPM_P1;HPM_P2
2022/05/09 00:00:28;;;;;;;9.15;4.68;;;435.40;1945.60;;;;;;5091493;28;20086;-86
2022/05/09 00:02:54;;;;;;;8.18;4.15;;;435.30;1843.20;;;;;;5091926;28;20017;-85
2022/05/09 00:05:22;;;;;;;7.75;3.95;;;435.30;1817.60;;;;;;5091417;28;20039;-85
2022/05/09 00:07:49;;;;;;;9.07;3.58;;;435.40;1792.00;;;;;;5091941;28;20016;-85
2022/05/09 00:10:17;;;;;;;8.73;4.50;;;435.50;1817.60;;;;;;5091452;28;20486;-85
2022/05/09 00:12:43;;;;;;;7.82;4.35;;;435.50;1843.20;;;;;;5092686;28;20031;-86
2022/05/09 00:15:10;;;;;;;12.05;5.57;;;435.60;1868.80;;;;;;5091749;28;20425;-81
2022/05/09 00:17:36;;;;;;;9.90;4.50;;;435.40;1920.00;;;;;;5079729;28;20021;-85
2022/05/09 00:20:02;;;;;;;10.90;4.78;;;436.10;1894.40;;;;;;5091623;28;20024;-86
2022/05/09 00:22:28;;;;;;;10.65;5.53;;;435.20;1945.60;;;;;;5091357;28;20545;-84
2022/05/09 00:24:54;;;;;;;9.07;3.95;;;435.20;1971.20;;;;;;5091574;28;20047;-85
2022/05/09 00:27:20;;;;;;;8.15;4.43;;;435.30;1971.20;;;;;;5090998;28;20028;-86
2022/05/09 00:29:46;;;;;;;10.30;3.75;;;435.30;1920.00;;;;;;5089048;28;20030;-86
2022/05/09 00:32:12;;;;;;;8.15;4.00;;;410.50;1971.20;;;;;;5091473;28;20404;-85
2022/05/09 00:34:38;;;;;;;8.55;3.85;;;435.30;1996.80;;;;;;5090818;28;20080;-85
2022/05/09 00:37:04;;;;;;;9.23;4.13;;;435.40;1971.20;;;;;;5092551;28;20016;-85
2022/05/09 00:39:31;;;;;;;6.45;3.78;;;435.30;1945.60;;;;;;5091282;28;20103;-85
2022/05/09 00:42:10;;;;;;;9.35;4.50;;;410.30;1945.60;;;;;;5091373;28;20185;-86
2022/05/09 00:44:35;;;;;;;7.38;3.75;;;435.30;1971.20;;;;;;5089690;28;20020;-85
2022/05/09 00:47:01;;;;;;;9.77;3.88;;;435.30;1971.20;;;;;;5091372;28;20050;-85
2022/05/09 00:49:27;;;;;;;6.55;4.13;;;435.20;2022.40;;;;;;5092317;28;20141;-85
2022/05/09 00:51:56;;;;;;;5.60;3.53;;;435.20;2048.00;;;;;;5091770;28;20055;-83
2022/05/09 00:54:25;;;;;;;16.67;4.30;;;435.20;2073.60;;;;;;5091354;28;20101;-83
2022/05/09 00:57:00;;;;;;;6.75;3.65;;;410.50;2073.60;;;;;;5091391;28;20038;-84
2022/05/09 00:59:28;;;;;;;7.15;3.63;;;410.50;2073.60;;;;;;5093962;28;20032;-85
2022/05/09 01:01:54;;;;;;;8.35;3.13;;;410.50;2073.60;;;;;;5094699;28;20031;-83
2022/05/09 01:04:25;;;;;;;7.35;3.03;;;410.50;2073.60;;;;;;5094820;28;20032;-79
2022/05/09 01:06:52;;;;;;;6.03;3.05;;;410.50;1971.20;;;;;;5092029;28;20028;-78
2022/05/09 01:09:18;;;;;;;7.78;3.28;;;410.50;1920.00;;;;;;5093725;28;20032;-78
2022/05/09 01:11:47;;;;;;;5.18;2.88;;;410.30;1971.20;;;;;;5093975;28;20032;-77
2022/05/09 01:14:23;;;;;;;7.10;3.30;;;410.40;2022.40;;;;;;5094800;28;20091;-79
2022/05/09 01:16:49;;;;;;;7.15;3.22;;;410.30;1971.20;;;;;;5092513;28;20012;-79
2022/05/09 01:19:36;;;;;;;6.80;3.95;;;410.40;2022.40;;;;;;5094885;28;20444;-79
2022/05/09 01:22:24;;;;;;;6.90;3.83;;;410.30;2048.00;;;;;;5094131;28;20020;-77
2022/05/09 01:24:50;;;;;;;5.72;3.13;;;410.40;2048.00;;;;;;5093103;28;20039;-79
2022/05/09 01:27:16;;;;;;;7.53;3.70;;;410.30;2099.20;;;;;;5087878;28;20013;-79
2022/05/09 01:30:02;;;;;;;7.47;3.45;;;410.30;2048.00;;;;;;5094998;28;20020;-78
2022/05/09 01:32:38;;;;;;;8.60;3.87;;;410.30;2073.60;;;;;;5088266;28;20081;-79
2022/05/09 01:35:16;;;;;;;9.45;3.60;;;410.30;2022.40;;;;;;5076675;28;20032;-79
2022/05/09 01:37:47;;;;;;;6.78;3.15;;;410.20;2073.60;;;;;;5093676;28;20016;-79
2022/05/09 01:40:13;;;;;;;9.77;4.05;;;410.10;2073.60;;;;;;5092192;28;20094;-79
2022/05/09 01:42:43;;;;;;;4.57;2.85;;;410.00;2150.40;;;;;;5093261;28;20028;-80
2022/05/09 01:45:11;;;;;;;5.65;3.38;;;410.00;2150.40;;;;;;5091806;28;20471;-78
2022/05/09 01:50:32;;;;;;;7.43;3.90;;;409.90;2252.80;;;;;;5024157;28;20040;-79
2022/05/09 01:52:57;;;;;;;10.05;3.90;;;409.90;2201.60;;;;;;5029734;28;20029;-79
2022/05/09 01:55:23;;;;;;;11.90;4.30;;;409.90;2124.80;;;;;;5014227;28;20493;-78
2022/05/09 01:57:49;;;;;;;7.38;3.60;;;410.00;2099.20;;;;;;5020961;28;20022;-79
2022/05/09 02:00:16;;;;;;;8.00;3.65;;;409.90;2073.60;;;;;;5004337;28;20049;-80
2022/05/09 02:02:42;;;;;;;7.53;3.30;;;409.80;2124.80;;;;;;5021545;28;20029;-79
2022/05/09 02:05:08;;;;;;;7.50;3.35;;;409.90;2073.60;;;;;;5020739;28;20520;-80
2022/05/09 02:07:34;;;;;;;8.77;3.70;;;409.80;2176.00;;;;;;5023163;28;20065;-79
2022/05/09 02:09:59;;;;;;;5.38;3.10;;;409.90;2150.40;;;;;;5021462;28;20475;-79
2022/05/09 02:12:26;;;;;;;9.07;3.80;;;409.90;2150.40;;;;;;5022991;28;20176;-79
2022/05/09 02:14:52;;;;;;;8.98;3.67;;;409.80;2176.00;;;;;;5022860;28;20026;-79
2022/05/09 02:17:18;;;;;;;10.60;3.78;;;409.80;2201.60;;;;;;5030022;28;20048;-79
2022/05/09 02:19:45;;;;;;;6.72;3.85;;;409.90;2150.40;;;;;;5021774;28;20029;-81
2022/05/09 02:22:12;;;;;;;10.30;3.55;;;409.80;2176.00;;;;;;5021046;28;20030;-80
2022/05/09 02:24:41;;;;;;;11.30;4.55;;;409.80;2150.40;;;;;;5021062;28;20050;-79
2022/05/09 02:27:10;;;;;;;8.32;3.63;;;409.80;2099.20;;;;;;5043711;28;20036;-80
2022/05/09 02:29:39;;;;;;;10.50;3.80;;;409.80;1996.80;;;;;;5062113;28;20009;-80
2022/05/09 02:32:06;;;;;;;10.40;3.67;;;409.80;1996.80;;;;;;5063454;28;20083;-80
2022/05/09 02:34:32;;;;;;;11.80;3.65;;;409.70;2022.40;;;;;;5058905;28;20017;-80
2022/05/09 02:36:58;;;;;;;8.60;4.10;;;409.70;2022.40;;;;;;5063571;28;20111;-79
2022/05/09 02:39:24;;;;;;;7.32;3.80;;;409.60;2048.00;;;;;;5063164;28;20099;-80
2022/05/09 02:41:49;;;;;;;7.60;3.70;;;384.90;2022.40;;;;;;5062638;28;20025;-80
2022/05/09 02:44:15;;;;;;;9.13;3.90;;;384.90;2048.00;;;;;;5061687;28;20024;-80
2022/05/09 02:46:42;;;;;;;8.25;3.80;;;384.80;2048.00;;;;;;5062204;28;20032;-81
2022/05/09 02:49:08;;;;;;;10.07;3.78;;;384.80;2048.00;;;;;;5064636;28;20476;-81
2022/05/09 02:51:34;;;;;;;8.68;3.92;;;384.70;1996.80;;;;;;5062748;28;20060;-79
2022/05/09 02:54:00;;;;;;;9.98;4.18;;;384.50;2124.80;;;;;;5063002;28;20025;-79
2022/05/09 02:56:26;;;;;;;11.52;3.90;;;384.50;2048.00;;;;;;5063902;28;20021;-80
2022/05/09 02:58:53;;;;;;;10.05;5.10;;;384.40;2099.20;;;;;;5058386;28;20025;-80
2022/05/09 03:01:19;;;;;;;10.95;4.13;;;384.30;2073.60;;;;;;5090085;28;20036;-80
2022/05/09 03:06:30;;;;;;;8.05;4.35;;;384.40;2124.80;;;;;;5092659;28;20034;-80
2022/05/09 03:08:57;;;;;;;8.20;4.60;;;384.00;2227.20;;;;;;5086506;28;20051;-80
2022/05/09 03:11:23;;;;;;;8.10;3.67;;;359.30;2201.60;;;;;;5081812;28;20027;-80
2022/05/09 03:13:49;;;;;;;26.70;6.70;;;359.10;2252.80;;;;;;5091555;28;20016;-80
2022/05/09 03:16:15;;;;;;;13.68;5.60;;;358.90;2252.80;;;;;;5075183;28;20020;-79
2022/05/09 03:18:40;;;;;;;12.98;4.97;;;358.90;2252.80;;;;;;5091927;28;20094;-80
2022/05/09 03:21:06;;;;;;;12.32;4.43;;;358.80;2278.40;;;;;;5092263;28;20032;-80
2022/05/09 03:23:33;;;;;;;13.10;5.50;;;358.60;2304.00;;;;;;5082302;28;20411;-80
2022/05/09 03:25:58;;;;;;;13.15;6.07;;;358.60;2304.00;;;;;;5086820;28;20561;-80
2022/05/09 03:28:25;;;;;;;14.32;5.88;;;358.70;2278.40;;;;;;5091734;28;20103;-81
2022/05/09 03:30:56;;;;;;;20.42;6.85;;;358.50;2278.40;;;;;;5091629;28;20111;-81
2022/05/09 03:33:24;;;;;;;15.82;5.93;;;358.60;2329.60;;;;;;5091383;28;20024;-80
2022/05/09 03:35:52;;;;;;;13.52;6.15;;;358.70;2304.00;;;;;;5091498;28;20028;-80
2022/05/09 03:38:18;;;;;;;14.60;5.93;;;358.70;2329.60;;;;;;5091432;28;20126;-79
2022/05/09 03:40:44;;;;;;;9.30;5.68;;;358.90;2329.60;;;;;;5091266;28;20111;-80
2022/05/09 03:43:11;;;;;;;18.80;5.63;;;358.90;2252.80;;;;;;5090535;28;20043;-80
2022/05/09 03:45:40;;;;;;;14.75;5.22;;;359.00;2201.60;;;;;;5091254;28;20411;-81
2022/05/09 03:48:07;;;;;;;16.27;5.50;;;359.10;2124.80;;;;;;5092805;28;20020;-79
2022/05/09 03:50:32;;;;;;;22.92;5.38;;;359.20;2124.80;;;;;;5091348;28;20077;-81
2022/05/09 03:52:58;;;;;;;15.52;4.93;;;359.20;2099.20;;;;;;5091020;28;20472;-81
2022/05/09 03:55:25;;;;;;;14.18;5.15;;;384.00;2073.60;;;;;;5092370;28;20016;-81
2022/05/09 03:57:55;;;;;;;18.30;5.63;;;359.30;2073.60;;;;;;5091247;28;20020;-78
2022/05/09 04:00:24;;;;;;;14.85;5.47;;;359.30;2099.20;;;;;;5092468;28;20101;-80
2022/05/09 04:02:50;;;;;;;14.95;5.47;;;359.30;2048.00;;;;;;5092089;28;20036;-80
2022/05/09 04:05:17;;;;;;;14.80;5.10;;;359.30;2124.80;;;;;;5092193;28;20065;-78
2022/05/09 04:07:50;;;;;;;11.55;5.95;;;359.20;2252.80;;;;;;5090889;28;20046;-81
2022/05/09 04:10:21;;;;;;;17.23;4.88;;;359.10;2252.80;;;;;;5088451;28;20016;-80
2022/05/09 04:12:47;;;;;;;16.00;4.95;;;359.20;2227.20;;;;;;5091273;28;20480;-79
2022/05/09 04:18:11;;;;;;;9.93;4.82;;;359.20;2150.40;;;;;;5069418;28;20131;-80
2022/05/09 04:20:38;;;;;;;13.90;5.38;;;359.20;2278.40;;;;;;5069784;28;20023;-80
2022/05/09 04:23:04;;;;;;;20.25;6.28;;;359.20;2329.60;;;;;;5069992;28;20116;-89
2022/05/09 04:25:34;;;;;;;16.27;5.22;;;359.20;2278.40;;;;;;5069649;28;20052;-82
2022/05/09 04:28:02;;;;;;;23.33;6.70;;;359.20;2329.60;;;;;;5072416;28;20260;-79
2022/05/09 04:30:29;;;;;;;16.55;6.28;;;359.30;2329.60;;;;;;5070732;28;20034;-83
2022/05/09 04:32:55;;;;;;;12.27;4.97;;;384.00;2278.40;;;;;;5070627;28;20420;-81
2022/05/09 04:35:21;;;;;;;14.38;5.22;;;384.10;2329.60;;;;;;5074234;28;20036;-81
2022/05/09 04:37:53;;;;;;;15.40;5.18;;;384.20;2329.60;;;;;;5073977;28;20103;-82
2022/05/09 04:40:24;;;;;;;13.77;6.10;;;359.30;2329.60;;;;;;5071604;28;20060;-84
2022/05/09 04:42:50;;;;;;;19.98;5.78;;;384.00;2329.60;;;;;;5074407;28;20028;-84
2022/05/09 04:45:17;;;;;;;14.05;5.90;;;384.20;2329.60;;;;;;5073603;28;20062;-84
2022/05/09 04:47:44;;;;;;;24.67;6.57;;;384.30;2329.60;;;;;;5074262;28;20036;-81
2022/05/09 04:50:13;;;;;;;20.48;6.05;;;384.40;2329.60;;;;;;5073798;28;20036;-82
2022/05/09 04:52:38;;;;;;;11.70;6.30;;;384.40;2329.60;;;;;;5055351;28;20035;-81
2022/05/09 04:55:05;;;;;;;28.92;6.78;;;384.40;2329.60;;;;;;5094910;28;20024;-82
2022/05/09 04:57:31;;;;;;;36.63;7.65;;;384.60;2329.60;;;;;;5095074;28;20020;-81
2022/05/09 04:59:57;;;;;;;11.10;6.30;;;384.60;2329.60;;;;;;5094618;28;20036;-82
2022/05/09 05:02:23;;;;;;;14.98;5.05;;;384.50;2278.40;;;;;;5094775;28;20016;-82
2022/05/09 05:04:49;;;;;;;13.70;5.18;;;384.60;2176.00;;;;;;5094038;28;20396;-81
2022/05/09 05:07:15;;;;;;;47.35;11.80;;;384.70;2073.60;;;;;;5094534;28;20514;-82
2022/05/09 05:09:41;;;;;;;12.68;5.68;;;384.80;2048.00;;;;;;5094825;28;20030;-81
2022/05/09 05:12:07;;;;;;;9.25;4.40;;;384.90;2048.00;;;;;;5094614;28;20414;-80
2022/05/09 05:14:33;;;;;;;9.52;4.47;;;384.80;1945.60;;;;;;5093645;28;20036;-80
2022/05/09 05:17:01;;;;;;;11.63;4.93;;;409.60;1945.60;;;;;;5093865;28;20132;-78
2022/05/09 05:19:40;;;;;;;12.43;5.20;;;409.80;2048.00;;;;;;5093966;28;20024;-81
2022/05/09 05:22:06;;;;;;;11.57;5.03;;;410.00;2048.00;;;;;;5089780;28;20507;-80
2022/05/09 05:24:37;;;;;;;10.18;4.55;;;410.20;2048.00;;;;;;5093575;28;20028;-79
2022/05/09 05:27:04;;;;;;;9.77;4.55;;;410.20;2048.00;;;;;;5091694;28;20093;-79
2022/05/09 05:29:30;;;;;;;14.32;5.15;;;410.20;2022.40;;;;;;5094358;28;20020;-78
2022/05/09 05:31:55;;;;;;;10.02;5.05;;;410.10;2073.60;;;;;;5087512;28;20477;-78
2022/05/09 05:34:21;;;;;;;6.43;3.88;;;410.20;2124.80;;;;;;5080739;28;20016;-78
2022/05/09 05:36:48;;;;;;;20.35;5.97;;;410.30;2201.60;;;;;;5094494;28;20437;-77
2022/05/09 05:39:15;;;;;;;12.15;4.63;;;410.50;2099.20;;;;;;5094646;28;20020;-75
2022/05/09 05:41:42;;;;;;;16.23;4.50;;;435.20;2150.40;;;;;;5095036;28;20070;-80
2022/05/09 05:44:11;;;;;;;12.23;5.03;;;435.30;2022.40;;;;;;5093473;28;20426;-78
2022/05/09 05:46:41;;;;;;;15.70;5.00;;;435.60;2048.00;;;;;;5093628;28;20050;-79
2022/05/09 05:49:09;;;;;;;11.95;4.07;;;435.60;2048.00;;;;;;5094888;28;20024;-77
2022/05/09 05:51:36;;;;;;;28.27;5.88;;;435.70;1868.80;;;;;;5094852;28;20050;-80
2022/05/09 05:54:03;;;;;;;16.13;5.20;;;435.90;1996.80;;;;;;5093846;28;20070;-78
2022/05/09 05:56:29;;;;;;;12.27;4.03;;;436.00;1894.40;;;;;;5093286;28;20128;-78
2022/05/09 05:58:54;;;;;;;12.05;4.10;;;436.10;1792.00;;;;;;5093622;28;20127;-78
2022/05/09 06:01:22;;;;;;;14.48;4.45;;;460.90;1715.20;;;;;;5092211;28;20396;-78
2022/05/09 06:03:48;;;;;;;8.90;3.17;;;460.90;1561.60;;;;;;5093324;28;20081;-79
2022/05/09 06:06:15;;;;;;;4.75;2.65;;;461.10;1536.00;;;;;;5093482;28;20036;-76
2022/05/09 06:08:43;;;;;;;8.13;2.58;;;461.10;1510.40;;;;;;5092853;28;20107;-79
2022/05/09 06:11:10;;;;;;;5.78;2.78;;;461.20;1536.00;;;;;;5090756;28;20038;-78
2022/05/09 06:13:36;;;;;;;7.18;2.88;;;461.30;1536.00;;;;;;5092411;28;20460;-77
2022/05/09 06:16:02;;;;;;;39.13;6.32;;;461.40;1536.00;;;;;;5093983;28;20036;-78
2022/05/09 06:18:28;;;;;;;11.48;3.72;;;461.60;1536.00;;;;;;5093840;28;20024;-77
2022/05/09 06:20:55;;;;;;;7.25;2.53;;;461.70;1459.20;;;;;;5093846;28;20024;-76
2022/05/09 06:23:21;;;;;;;11.10;3.30;;;486.40;1459.20;;;;;;5092252;28;20068;-77
2022/05/09 06:25:48;;;;;;;5.25;2.78;;;486.40;1433.60;;;;;;5091948;28;20621;-76
2022/05/09 06:28:16;;;;;;;11.68;2.65;;;486.50;1433.60;;;;;;5092349;28;20027;-76
2022/05/09 06:30:43;;;;;;;5.28;2.50;;;486.70;1382.40;;;;;;5092072;28;20020;-77
2022/05/09 06:33:09;;;;;;;3.92;2.30;;;486.70;1408.00;;;;;;5093546;28;20020;-79
2022/05/09 06:35:41;;;;;;;6.57;2.35;;;486.80;1356.80;;;;;;5093232;28;20035;-78
2022/05/09 06:38:07;;;;;;;9.38;3.50;;;486.80;1331.20;;;;;;5092235;28;20118;-78
2022/05/09 06:40:37;;;;;;;12.95;3.10;;;486.90;1356.80;;;;;;5090707;28;20030;-77
2022/05/09 06:43:03;;;;;;;5.82;2.50;;;487.00;1382.40;;;;;;5093361;28;20031;-79
2022/05/09 06:45:30;;;;;;;5.97;2.47;;;487.10;1356.80;;;;;;5091793;28;20034;-77
2022/05/09 06:47:57;;;;;;;8.55;2.70;;;487.10;1331.20;;;;;;5092947;28;20024;-77
2022/05/09 06:50:31;;;;;;;6.07;2.28;;;487.20;1331.20;;;;;;5093021;28;20020;-77
2022/05/09 06:52:58;;;;;;;3.30;2.15;;;512.00;1331.20;;;;;;5092145;28;20020;-82
2022/05/09 06:55:24;;;;;;;8.82;2.65;;;512.10;1305.60;;;;;;5091139;28;20081;-77
2022/05/09 06:57:50;;;;;;;5.60;2.40;;;512.30;1305.60;;;;;;5092374;28;20024;-76
2022/05/09 07:00:18;;;;;;;7.35;2.90;;;512.30;1280.00;;;;;;5092910;28;20119;-77
2022/05/09 07:02:45;;;;;;;6.35;2.40;;;512.40;1280.00;;;;;;5092920;28;20009;-79
2022/05/09 07:05:15;;;;;;;6.30;2.63;;;512.40;1305.60;;;;;;5092798;28;20028;-79
2022/05/09 07:07:42;;;;;;;6.97;2.35;;;512.50;1305.60;;;;;;5093096;28;20015;-79
2022/05/09 07:10:08;;;;;;;5.80;2.38;;;512.60;1305.60;;;;;;5091322;28;20050;-80
2022/05/09 07:12:51;;;;;;;11.18;2.33;;;512.60;1254.40;;;;;;5089181;28;20483;-80
2022/05/09 07:15:24;;;;;;;8.20;2.88;;;512.80;1254.40;;;;;;5083866;28;20031;-78
2022/05/09 07:17:50;;;;;;;8.90;2.83;;;512.90;1228.80;;;;;;5078458;28;20063;-78
2022/05/09 07:20:17;;;;;;;6.80;2.53;;;537.70;1280.00;;;;;;5071669;28;20020;-79
2022/05/09 07:22:43;;;;;;;7.75;2.67;;;537.90;1305.60;;;;;;5072692;28;20393;-79
2022/05/09 07:25:13;;;;;;;4.57;2.47;;;538.00;1228.80;;;;;;5071516;28;20032;-79
2022/05/09 07:27:42;;;;;;;6.45;2.70;;;538.10;1177.60;;;;;;5071130;28;20028;-78
2022/05/09 07:30:12;;;;;;;7.55;2.45;;;538.20;1152.00;;;;;;5071520;28;20032;-78
2022/05/09 07:32:39;;;;;;;6.72;2.88;;;538.20;1177.60;;;;;;5071286;28;20600;-79
2022/05/09 07:35:10;;;;;;;6.95;3.05;;;538.40;1203.20;;;;;;5072648;28;20028;-78
2022/05/09 07:37:37;;;;;;;6.13;2.85;;;563.20;1254.40;;;;;;5070540;28;20456;-80
2022/05/09 07:40:03;;;;;;;7.68;2.35;;;563.40;1203.20;;;;;;5071279;28;20549;-78
2022/05/09 07:42:29;;;;;;;5.78;2.15;;;563.30;1152.00;;;;;;5072603;28;20082;-78
2022/05/09 07:44:56;;;;;;;5.88;2.90;;;563.40;1152.00;;;;;;5072109;28;20024;-79
2022/05/09 07:47:23;;;;;;;6.40;3.17;;;563.50;1126.40;;;;;;5071032;28;20526;-79
2022/05/09 07:49:50;;;;;;;8.85;2.63;;;563.60;1152.00;;;;;;5071060;28;20074;-79
2022/05/09 07:52:16;;;;;;;12.38;4.55;;;563.70;1126.40;;;;;;5093303;28;20039;-79
2022/05/09 07:54:43;;;;;;;8.45;2.45;;;563.80;1152.00;;;;;;5090528;28;20031;-78
2022/05/09 07:57:09;;;;;;;7.07;3.13;;;563.80;1100.80;;;;;;5092051;28;20028;-79
2022/05/09 07:59:35;;;;;;;11.98;3.33;;;563.90;1049.60;;;;;;5090594;28;20168;-79
2022/05/09 08:02:01;;;;;;;4.60;2.50;;;564.00;1100.80;;;;;;5092175;28;20487;-79
2022/05/09 08:04:27;;;;;;;13.07;3.42;;;564.10;1075.20;;;;;;5090540;28;20017;-79
2022/05/09 08:06:53;;;;;;;6.90;2.55;;;588.80;1126.40;;;;;;5092731;28;20082;-79
2022/05/09 08:09:18;;;;;;;16.42;2.85;;;588.80;1100.80;;;;;;5096957;28;20460;-79
2022/05/09 08:11:44;;;;;;;4.90;2.28;;;588.90;1100.80;;;;;;5097041;28;20506;-79
2022/05/09 08:14:11;;;;;;;7.20;3.75;;;588.90;1049.60;;;;;;5097269;28;20030;-79
2022/05/09 08:16:38;;;;;;;10.60;3.45;;;588.90;1024.00;;;;;;5098299;28;20091;-78
2022/05/09 08:19:04;;;;;;;5.63;2.25;;;589.00;1075.20;;;;;;5097598;28;20127;-79
2022/05/09 08:21:30;;;;;;;8.15;2.83;;;589.10;1049.60;;;;;;5097431;28;20024;-79
2022/05/09 08:23:57;;;;;;;5.45;2.50;;;589.10;1024.00;;;;;;5098463;28;20046;-79
2022/05/09 08:26:23;;;;;;;4.53;2.00;;;589.20;1049.60;;;;;;5098611;28;20024;-79
2022/05/09 08:28:50;;;;;;;6.55;2.72;;;589.20;1075.20;;;;;;5096904;28;20048;-79
2022/05/09 08:31:18;;;;;;;8.77;2.28;;;589.30;1049.60;;;;;;5097669;28;20433;-79
2022/05/09 08:33:46;;;;;;;6.05;2.00;;;589.30;1075.20;;;;;;5097734;28;20024;-79
2022/05/09 08:36:45;;;;;;;5.80;2.40;;;589.40;1024.00;;;;;;5097596;28;20161;-79
2022/05/09 08:38:58;;;;;;;8.52;3.35;;;589.50;1049.60;;;;;;5098484;28;20464;-79
2022/05/09 08:41:26;;;;;;;5.25;2.17;;;589.40;998.40;;;;;;5096011;28;20031;-79
2022/05/09 08:44:05;;;;;;;3.45;2.00;;;589.50;1024.00;;;;;;5096851;28;20399;-79
2022/05/09 08:46:50;;;;;;;7.65;2.47;;;589.70;1049.60;;;;;;5096709;28;20024;-79
2022/05/09 08:49:31;;;;;;;11.43;3.40;;;589.70;1024.00;;;;;;5095240;28;20099;-79
2022/05/09 08:52:22;;;;;;;5.43;2.67;;;589.70;1024.00;;;;;;5097015;28;20028;-79
2022/05/09 08:54:50;;;;;;;5.05;2.67;;;589.70;1049.60;;;;;;5104156;28;20027;-80
2022/05/09 08:57:31;;;;;;;5.68;2.58;;;614.40;1049.60;;;;;;5096710;28;20051;-79
2022/05/09 09:00:13;;;;;;;6.85;2.80;;;614.50;1075.20;;;;;;5096900;28;20135;-79
2022/05/09 09:03:07;;;;;;;6.18;2.05;;;614.60;1075.20;;;;;;5097401;28;20030;-79
2022/05/09 09:05:36;;;;;;;6.78;2.20;;;614.60;1049.60;;;;;;5098503;28;20081;-78
2022/05/09 09:08:23;;;;;;;7.28;2.70;;;614.60;1024.00;;;;;;5097255;28;20032;-79
2022/05/09 09:11:07;;;;;;;5.97;2.22;;;614.60;998.40;;;;;;5097589;28;20032;-80
2022/05/09 09:13:53;;;;;;;11.10;3.00;;;614.60;1049.60;;;;;;5097605;28;20472;-80
2022/05/09 09:16:37;;;;;;;6.78;2.53;;;614.80;1024.00;;;;;;5097911;28;20388;-82
2022/05/09 09:19:31;;;;;;;8.15;2.70;;;614.80;998.40;;;;;;5095797;28;20028;-81
2022/05/09 09:22:05;;;;;;;8.55;2.92;;;615.00;1049.60;;;;;;5094803;28;20559;-81
2022/05/09 09:24:43;;;;;;;7.18;2.88;;;615.00;1049.60;;;;;;5094316;28;20036;-81
2022/05/09 09:27:37;;;;;;;5.05;2.65;;;615.20;998.40;;;;;;5094258;28;20567;-80
2022/05/09 09:30:13;;;;;;;8.82;2.90;;;615.30;998.40;;;;;;5093481;28;20128;-81
2022/05/09 09:32:45;;;;;;;15.80;2.85;;;615.20;972.80;;;;;;5074393;28;20380;-80
2022/05/09 09:35:33;;;;;;;9.77;3.15;;;615.30;972.80;;;;;;5073610;28;20035;-79
2022/05/09 09:38:12;;;;;;;9.48;2.92;;;640.10;1024.00;;;;;;5073360;28;20028;-79
2022/05/09 09:40:38;;;;;;;8.27;2.92;;;640.20;1024.00;;;;;;5073696;28;20396;-80
2022/05/09 09:43:04;;;;;;;6.57;2.90;;;640.40;998.40;;;;;;5074589;28;20024;-79
2022/05/09 09:45:49;;;;;;;5.95;2.35;;;640.50;972.80;;;;;;5073773;28;20040;-80
2022/05/09 09:48:21;;;;;;;4.95;2.80;;;640.60;947.20;;;;;;5073693;28;20070;-80
2022/05/09 09:51:04;;;;;;;6.90;3.00;;;640.70;947.20;;;;;;5073336;28;20031;-79
2022/05/09 09:53:35;;;;;;;8.30;2.95;;;640.90;947.20;;;;;;5073721;28;20123;-79
2022/05/09 09:56:20;;;;;;;3.75;2.35;;;665.60;1049.60;;;;;;5073284;28;20060;-80
2022/05/09 09:58:48;;;;;;;8.52;3.50;;;665.60;1024.00;;;;;;5081519;28;20047;-80
2022/05/09 10:01:25;;;;;;;18.00;3.83;;;665.60;1024.00;;;;;;5093988;28;20089;-79
2022/05/09 10:04:11;;;;;;;6.28;3.13;;;665.80;1049.60;;;;;;5092642;28;20044;-80
2022/05/09 10:06:55;;;;;;;5.63;2.78;;;666.10;1024.00;;;;;;5092695;28;20049;-83
2022/05/09 10:09:22;;;;;;;7.55;3.25;;;666.10;1024.00;;;;;;5095417;28;20475;-87
2022/05/09 10:11:48;;;;;;;7.53;2.70;;;666.10;998.40;;;;;;5094546;28;20028;-84
2022/05/09 10:14:32;;;;;;;7.35;3.03;;;666.30;1024.00;;;;;;5092541;28;20020;-79
2022/05/09 10:17:18;;;;;;;8.82;3.47;;;691.20;998.40;;;;;;5092409;28;20035;-79
2022/05/09 10:19:45;;;;;;;8.80;3.20;;;691.30;998.40;;;;;;5091665;28;20012;-80
2022/05/09 10:25:22;;;;;;;4.57;2.85;;;691.50;1024.00;;;;;;5089131;28;20032;-79
2022/05/09 10:28:15;;;;;;;4.47;2.58;;;691.40;1024.00;;;;;;5091340;28;20020;-80
2022/05/09 10:30:46;;;;;;;7.70;2.60;;;691.70;1075.20;;;;;;5090308;28;20491;-79
2022/05/09 10:33:31;;;;;;;5.00;2.88;;;691.80;1024.00;;;;;;5092438;28;20024;-78
2022/05/09 10:35:59;;;;;;;3.60;2.70;;;;;;;;;;5093844;28;20020;-78
2022/05/09 10:38:40;;;;;;;7.28;2.95;;;691.90;972.80;;;;;;5093741;28;20031;-77
2022/05/09 10:41:36;;;;;;;6.80;2.60;;;692.00;1024.00;;;;;;5093592;28;20030;-77
2022/05/09 10:44:07;;;;;;;;;;;692.00;1024.00;;;;;;5093694;28;20040;-77
2022/05/09 10:46:41;;;;;;;10.77;3.67;;;692.10;998.40;;;;;;5093532;28;19912;-76
2022/05/09 10:49:19;;;;;;;7.78;3.30;;;716.80;998.40;;;;;;5093694;28;20050;-77
2022/05/09 10:51:59;;;;;;;7.93;3.42;;;716.90;1024.00;;;;;;5093378;28;20108;-77
2022/05/09 10:54:40;;;;;;;6.20;3.13;;;717.00;998.40;;;;;;5093646;28;20541;-77
2022/05/09 10:57:08;;;;;;;6.95;2.95;;;717.00;998.40;;;;;;5093379;28;20024;-78
2022/05/09 10:59:41;;;;;;;4.78;3.00;;;716.90;1024.00;;;;;;5093267;28;20075;-78
2022/05/09 11:02:19;;;;;;;7.97;3.25;;;716.90;1024.00;;;;;;5091446;28;20028;-80
2022/05/09 11:04:45;;;;;;;5.88;3.17;;;717.20;1049.60;;;;;;5092449;28;20019;-76
2022/05/09 11:07:35;;;;;;;5.90;3.50;;;717.20;998.40;;;;;;5092857;28;20361;-76
2022/05/09 11:10:30;;;;;;;7.15;3.40;;;717.30;998.40;;;;;;5091504;28;20099;-77
2022/05/09 11:12:59;;;;;;;12.27;4.25;;;717.20;1049.60;;;;;;5077200;28;20036;-76
2022/05/09 11:15:52;;;;;;;5.63;2.80;;;717.30;1024.00;;;;;;5090859;28;20476;-75
2022/05/09 11:18:50;;;;;;;9.50;3.25;;;717.30;998.40;;;;;;5090022;28;20110;-77
2022/05/09 11:21:54;;;;;;;17.35;3.13;;;717.10;998.40;;;;;;5089612;28;20016;-76
2022/05/09 11:24:31;;;;;;;7.05;3.17;;;716.90;1024.00;;;;;;5021353;28;20033;-76
2022/05/09 11:27:18;;;;;;;8.93;3.20;;;717.10;1024.00;;;;;;5020717;28;20598;-77
2022/05/09 11:30:19;;;;;;;8.02;2.90;;;717.40;998.40;;;;;;5016614;28;20038;-76
2022/05/09 11:32:46;;;;;;;9.00;3.05;;;717.50;998.40;;;;;;5014780;28;20497;-83
2022/05/09 11:35:18;;;;;;;9.55;3.30;;;717.50;998.40;;;;;;5006336;28;20049;-76
2022/05/09 11:37:49;;;;;;;7.10;3.40;;;717.70;972.80;;;;;;4999489;28;20033;-77
2022/05/09 11:40:27;;;;;;;5.20;3.10;;;717.50;947.20;;;;;;5026818;28;20069;-78
2022/05/09 11:46:17;;;;;;;6.22;3.05;;;717.40;972.80;;;;;;4982072;28;20035;-78
2022/05/09 11:49:25;;;;;;;6.75;2.97;;;717.40;972.80;;;;;;4988941;28;20030;-77
2022/05/09 11:51:55;;;;;;;5.03;2.90;;;717.40;998.40;;;;;;4981926;28;20097;-78
2022/05/09 11:54:35;;;;;;;7.05;2.95;;;717.70;1024.00;;;;;;4956730;28;20098;-78
2022/05/09 11:57:14;;;;;;;7.15;3.13;;;742.50;998.40;;;;;;4971103;28;20035;-78
2022/05/09 11:59:58;;;;;;;8.70;2.95;;;742.50;998.40;;;;;;4971702;28;20038;-77
2022/05/09 12:02:50;;;;;;;5.55;3.20;;;742.50;947.20;;;;;;4994392;28;20108;-80
2022/05/09 12:05:29;;;;;;;9.52;3.10;;;742.40;972.80;;;;;;5010594;28;20506;-79
2022/05/09 12:08:20;;;;;;;5.70;2.53;;;742.50;972.80;;;;;;5002223;28;20056;-79
2022/05/09 12:11:12;;;;;;;7.38;2.83;;;742.50;998.40;;;;;;5020088;28;20116;-79
2022/05/09 12:13:41;;;;;;;8.73;3.28;;;742.40;1024.00;;;;;;5021385;28;20026;-79
2022/05/09 12:16:07;;;;;;;4.40;2.72;;;717.50;998.40;;;;;;5022992;28;20038;-79
2022/05/09 12:18:54;;;;;;;6.75;2.92;;;742.50;1024.00;;;;;;5016996;28;20037;-79
2022/05/09 12:21:24;;;;;;;7.82;2.90;;;742.70;947.20;;;;;;5002655;28;20066;-80
2022/05/09 12:24:12;;;;;;;4.53;2.63;;;742.60;947.20;;;;;;5081797;28;20032;-79
2022/05/09 12:26:40;;;;;;;8.15;2.92;;;742.70;947.20;;;;;;5077667;28;20051;-80
2022/05/09 12:29:46;;;;;;;4.85;3.20;;;742.80;921.60;;;;;;5090523;28;20066;-79
2022/05/09 12:32:15;;;;;;;5.50;3.25;;;742.40;947.20;;;;;;5090001;28;20040;-79
2022/05/09 12:34:43;;;;;;;6.90;3.13;;;742.50;947.20;;;;;;5090328;28;20028;-79
2022/05/09 12:37:12;;;;;;;10.55;3.53;;;742.60;921.60;;;;;;5091346;28;20031;-79
2022/05/09 12:39:48;;;;;;;13.20;3.17;;;742.70;921.60;;;;;;5090094;28;20499;-79
2022/05/09 12:42:26;;;;;;;4.35;2.78;;;742.80;947.20;;;;;;5090341;28;20550;-79
2022/05/09 12:44:53;;;;;;;6.75;2.70;;;742.80;870.40;;;;;;5089206;28;20032;-79
2022/05/09 12:47:29;;;;;;;8.63;3.05;;;742.80;921.60;;;;;;5091241;28;20058;-79
2022/05/09 12:50:00;;;;;;;7.15;2.88;;;742.90;921.60;;;;;;5092254;28;20020;-80